Time;durP1;ratioP1;P1;durP2;ratioP2;P2;SDS_P1;SDS_P2;PMS_P1;PMS_P2;Temp;Humidity;BMP_temperature;BMP_pressure;BME280_temperature;BME280_humidity;BME280_pressure;Samples;Min_cycle;Max_cycle;Signal;HPM_P1;HPM_P2
2022/12/01 00:00:47;;;;;;;;;;;;;;;;;;4990256;28;19926;-54
2022/12/01 00:03:13;;;;;;;;;;;;;;;;;;4997944;28;19920;-53
2022/12/01 00:05:39;;;;;;;;;;;;;;;;;;4989238;28;20404;-54
2022/12/01 00:08:05;;;;;;;;;;;;;;;;;;4991242;28;19932;-54
2022/12/01 00:10:31;;;;;;;;;;;;;;;;;;4993464;28;20422;-54
2022/12/01 00:12:56;;;;;;;;;;;;;;;;;;4989682;28;19926;-52
2022/12/01 00:15:22;;;;;;;;;;;;;;;;;;4991197;28;19925;-54
2022/12/01 00:17:48;;;;;;;;;;;;;;;;;;4999231;28;19936;-53
2022/12/01 00:20:14;;;;;;;;;;;;;;;;;;4981792;28;19935;-53
2022/12/01 00:22:40;;;;;;;;;;;;;;;;;;5001192;28;20303;-53
2022/12/01 00:25:06;;;;;;;;;;;;;;;;;;4999454;28;20851;-54
2022/12/01 00:27:32;;;;;;;;;;;;;;;;;;4992989;28;19948;-54
2022/12/01 00:29:58;;;;;;;;;;;;;;;;;;4994833;28;19925;-52
2022/12/01 00:32:24;;;;;;;;;;;;;;;;;;4982268;28;20604;-54
2022/12/01 00:34:49;;;;;;;;;;;;;;;;;;5000019;28;20434;-53
2022/12/01 00:37:15;;;;;;;;;;;;;;;;;;4977302;28;20545;-54
2022/12/01 00:39:41;;;;;;;;;;;;;;;;;;4978079;28;19996;-52
2022/12/01 00:42:07;;;;;;;;;;;;;;;;;;4984636;28;19925;-53
2022/12/01 00:44:33;;;;;;;;;;;;;;;;;;4993122;28;19929;-53
2022/12/01 00:46:59;;;;;;;;;;;;;;;;;;4995535;28;19925;-53
2022/12/01 00:49:25;;;;;;;;;;;;;;;;;;4967363;28;20509;-53
2022/12/01 00:51:50;;;;;;;;;;;;;;;;;;4984553;28;19917;-54
2022/12/01 00:54:16;;;;;;;;;;;;;;;;;;4995743;28;19932;-54
2022/12/01 00:56:42;;;;;;;;;;;;;;;;;;4976379;28;19922;-53
2022/12/01 00:59:08;;;;;;;;;;;;;;;;;;4981457;28;20033;-54
2022/12/01 01:01:34;;;;;;;;;;;;;;;;;;4980287;28;19932;-53
2022/12/01 01:04:00;;;;;;;;;;;;;;;;;;4982731;28;19963;-53
2022/12/01 01:06:26;;;;;;;;;;;;;;;;;;4980472;28;19925;-51
2022/12/01 01:08:51;;;;;;;;;;;;;;;;;;5002675;28;19931;-52
2022/12/01 01:11:17;;;;;;;;;;;;;;;;;;4999555;28;19925;-53
2022/12/01 01:13:43;;;;;;;;;;;;;;;;;;4998133;28;19925;-54
2022/12/01 01:16:09;;;;;;;;;;;;;;;;;;4988751;28;20022;-53
2022/12/01 01:18:35;;;;;;;;;;;;;;;;;;4986169;28;20859;-52
2022/12/01 01:21:01;;;;;;;;;;;;;;;;;;4994836;28;19932;-54
2022/12/01 01:23:27;;;;;;;;;;;;;;;;;;4985832;28;20059;-53
2022/12/01 01:25:53;;;;;;;;;;;;;;;;;;4980025;28;19971;-53
2022/12/01 01:28:18;;;;;;;;;;;;;;;;;;4989345;28;20018;-52
2022/12/01 01:30:44;;;;;;;;;;;;;;;;;;4990714;28;19914;-52
2022/12/01 01:33:10;;;;;;;;;;;;;;;;;;4999105;28;20637;-54
2022/12/01 01:35:36;;;;;;;;;;;;;;;;;;4994324;28;19924;-54
2022/12/01 01:38:02;;;;;;;;;;;;;;;;;;4978513;28;19929;-52
2022/12/01 01:40:28;;;;;;;;;;;;;;;;;;4986577;28;19931;-53
2022/12/01 01:42:54;;;;;;;;;;;;;;;;;;5000288;28;20306;-53
2022/12/01 01:45:20;;;;;;;;;;;;;;;;;;4989169;28;19924;-54
2022/12/01 01:47:46;;;;;;;;;;;;;;;;;;5001160;28;19968;-54
2022/12/01 01:50:11;;;;;;;;;;;;;;;;;;4975308;28;19922;-53
2022/12/01 01:52:37;;;;;;;;;;;;;;;;;;4992499;28;19931;-53
2022/12/01 01:55:03;;;;;;;;;;;;;;;;;;4998184;28;20307;-54
2022/12/01 01:57:29;;;;;;;;;;;;;;;;;;5001346;28;19936;-54
2022/12/01 01:59:55;;;;;;;;;;;;;;;;;;4997584;28;19925;-52
2022/12/01 02:02:21;;;;;;;;;;;;;;;;;;4993372;28;25170;-53
2022/12/01 02:04:47;;;;;;;;;;;;;;;;;;4993371;28;19926;-52
2022/12/01 02:07:13;;;;;;;;;;;;;;;;;;4988490;28;19983;-54
2022/12/01 02:09:38;;;;;;;;;;;;;;;;;;4980973;28;20380;-52
2022/12/01 02:12:04;;;;;;;;;;;;;;;;;;4986980;28;19996;-54
2022/12/01 02:14:30;;;;;;;;;;;;;;;;;;4997247;28;20016;-53
2022/12/01 02:16:56;;;;;;;;;;;;;;;;;;4990867;28;20007;-54
2022/12/01 02:19:22;;;;;;;;;;;;;;;;;;4991629;28;19931;-52
2022/12/01 02:21:48;;;;;;;;;;;;;;;;;;4996820;28;19926;-51
2022/12/01 02:24:14;;;;;;;;;;;;;;;;;;4995720;28;19947;-53
2022/12/01 02:26:40;;;;;;;;;;;;;;;;;;4994616;28;20351;-54
2022/12/01 02:29:05;;;;;;;;;;;;;;;;;;4992924;28;19925;-53
2022/12/01 02:31:31;;;;;;;;;;;;;;;;;;4990498;28;19922;-54
2022/12/01 02:33:57;;;;;;;;;;;;;;;;;;5006530;28;19921;-53
2022/12/01 02:36:23;;;;;;;;;;;;;;;;;;4994144;28;19972;-52
2022/12/01 02:38:49;;;;;;;;;;;;;;;;;;4997245;28;20395;-54
2022/12/01 02:41:15;;;;;;;;;;;;;;;;;;5011615;28;19932;-51
2022/12/01 02:43:41;;;;;;;;;;;;;;;;;;5001006;28;19925;-53
2022/12/01 02:46:08;;;;;;;;;;;;;;;;;;5005979;28;19922;-54
2022/12/01 02:48:33;;;;;;;;;;;;;;;;;;4987160;28;19964;-52
2022/12/01 02:50:59;;;;;;;;;;;;;;;;;;4997545;28;20005;-52
2022/12/01 02:53:25;;;;;;;;;;;;;;;;;;4993823;28;20402;-54
2022/12/01 02:55:51;;;;;;;;;;;;;;;;;;4990625;28;20065;-53
2022/12/01 02:58:17;;;;;;;;;;;;;;;;;;4992807;28;19926;-52
2022/12/01 03:00:43;;;;;;;;;;;;;;;;;;4982765;28;19918;-52
2022/12/01 03:03:09;;;;;;;;;;;;;;;;;;4997193;28;20378;-52
2022/12/01 03:05:35;;;;;;;;;;;;;;;;;;4994521;28;19940;-53
2022/12/01 03:08:01;;;;;;;;;;;;;;;;;;4998188;28;20458;-53
2022/12/01 03:10:27;;;;;;;;;;;;;;;;;;4990583;28;19917;-53
2022/12/01 03:12:52;;;;;;;;;;;;;;;;;;4978344;28;20000;-53
2022/12/01 03:15:18;;;;;;;;;;;;;;;;;;4994003;28;19932;-53
2022/12/01 03:17:44;;;;;;;;;;;;;;;;;;4995885;28;19921;-52
2022/12/01 03:20:10;;;;;;;;;;;;;;;;;;5001995;28;19932;-53
2022/12/01 03:22:36;;;;;;;;;;;;;;;;;;4998112;28;19921;-53
2022/12/01 03:25:02;;;;;;;;;;;;;;;;;;4989111;28;19925;-53
2022/12/01 03:27:28;;;;;;;;;;;;;;;;;;5000798;28;19955;-53
2022/12/01 03:29:54;;;;;;;;;;;;;;;;;;5007355;28;20062;-52
2022/12/01 03:32:20;;;;;;;;;;;;;;;;;;5004366;28;19921;-52
2022/12/01 03:34:46;;;;;;;;;;;;;;;;;;5003163;28;19929;-53
2022/12/01 03:37:11;;;;;;;;;;;;;;;;;;4996393;28;19933;-52
2022/12/01 03:39:37;;;;;;;;;;;;;;;;;;5006655;28;19968;-54
2022/12/01 03:42:03;;;;;;;;;;;;;;;;;;5003950;28;19921;-54
2022/12/01 03:44:29;;;;;;;;;;;;;;;;;;4993280;28;20394;-54
2022/12/01 03:46:57;;;;;;;;;;;;;;;;;;4988597;28;21354;-52
2022/12/01 03:49:24;;;;;;;;;;;;;;;;;;4999336;28;19917;-53
2022/12/01 03:51:50;;;;;;;;;;;;;;;;;;4998886;28;20299;-55
2022/12/01 03:54:16;;;;;;;;;;;;;;;;;;4999010;28;20322;-52
2022/12/01 03:56:42;;;;;;;;;;;;;;;;;;5006557;28;19930;-54
2022/12/01 03:59:07;;;;;;;;;;;;;;;;;;4996633;28;19991;-53
2022/12/01 04:01:33;;;;;;;;;;;;;;;;;;4993112;28;20023;-53
2022/12/01 04:03:59;;;;;;;;;;;;;;;;;;4989407;28;20331;-52
2022/12/01 04:06:25;;;;;;;;;;;;;;;;;;5010128;28;19979;-52
2022/12/01 04:08:51;;;;;;;;;;;;;;;;;;4992568;28;20082;-54
2022/12/01 04:14:01;;;;;;;;;;;;;;;;;;4988554;28;20449;-53
2022/12/01 04:16:27;;;;;;;;;;;;;;;;;;4990543;28;20290;-54
2022/12/01 04:18:53;;;;;;;;;;;;;;;;;;4997558;28;19934;-53
2022/12/01 04:21:19;;;;;;;;;;;;;;;;;;4975576;28;19929;-53
2022/12/01 04:24:00;;;;;;;;;;;;;;;;;;4993549;28;19923;-53
2022/12/01 04:26:26;;;;;;;;;;;;;;;;;;4984871;28;20600;-52
2022/12/01 04:28:52;;;;;;;;;;;;;;;;;;4986644;28;20779;-52
2022/12/01 04:31:18;;;;;;;;;;;;;;;;;;5003223;28;20004;-52
2022/12/01 04:33:44;;;;;;;;;;;;;;;;;;4989685;28;19926;-52
2022/12/01 04:36:10;;;;;;;;;;;;;;;;;;4986345;28;19924;-53
2022/12/01 04:38:38;;;;;;;;;;;;;;;;;;4987497;28;19929;-54
2022/12/01 04:41:04;;;;;;;;;;;;;;;;;;4966398;28;20009;-53
2022/12/01 04:43:30;;;;;;;;;;;;;;;;;;4986656;28;20199;-54
2022/12/01 04:45:56;;;;;;;;;;;;;;;;;;4989850;28;20046;-53
2022/12/01 04:48:22;;;;;;;;;;;;;;;;;;4985485;28;19976;-54
2022/12/01 04:50:48;;;;;;;;;;;;;;;;;;4984120;28;20035;-54
2022/12/01 04:53:14;;;;;;;;;;;;;;;;;;4990976;28;19977;-52
2022/12/01 04:55:39;;;;;;;;;;;;;;;;;;5002211;28;19921;-54
2022/12/01 04:58:05;;;;;;;;;;;;;;;;;;4993664;28;20422;-51
2022/12/01 05:00:31;;;;;;;;;;;;;;;;;;4988913;28;20255;-54
2022/12/01 05:02:57;;;;;;;;;;;;;;;;;;4992973;28;20425;-54
2022/12/01 05:05:23;;;;;;;;;;;;;;;;;;4974726;28;19926;-54
2022/12/01 05:07:49;;;;;;;;;;;;;;;;;;4982508;28;19974;-54
2022/12/01 05:10:17;;;;;;;;;;;;;;;;;;4967114;28;19919;-53
2022/12/01 05:12:45;;;;;;;;;;;;;;;;;;4991922;28;19921;-54
2022/12/01 05:15:10;;;;;;;;;;;;;;;;;;4989710;28;20437;-53
2022/12/01 05:17:36;;;;;;;;;;;;;;;;;;4961948;28;19929;-53
2022/12/01 05:22:47;;;;;;;;;;;;;;;;;;4976230;28;20012;-54
2022/12/01 05:25:13;;;;;;;;;;;;;;;;;;4985948;28;20356;-53
2022/12/01 05:27:39;;;;;;;;;;;;;;;;;;4969151;28;19926;-53
2022/12/01 05:30:05;;;;;;;;;;;;;;;;;;4934168;28;19921;-54
2022/12/01 05:32:30;;;;;;;;;;;;;;;;;;4950820;28;20016;-54
2022/12/01 05:34:56;;;;;;;;;;;;;;;;;;4950914;28;19959;-52
2022/12/01 05:37:22;;;;;;;;;;;;;;;;;;4958299;28;19935;-52
2022/12/01 05:39:48;;;;;;;;;;;;;;;;;;4963417;28;20333;-54
2022/12/01 05:42:14;;;;;;;;;;;;;;;;;;4957294;28;19932;-52
2022/12/01 05:44:40;;;;;;;;;;;;;;;;;;4990247;28;19917;-53
2022/12/01 05:47:06;;;;;;;;;;;;;;;;;;4966928;28;20738;-53
2022/12/01 05:49:32;;;;;;;;;;;;;;;;;;4974379;28;19925;-53
2022/12/01 05:51:57;;;;;;;;;;;;;;;;;;4932183;28;19980;-52
2022/12/01 05:54:23;;;;;;;;;;;;;;;;;;4952273;28;19917;-53
2022/12/01 05:56:49;;;;;;;;;;;;;;;;;;4964739;28;21167;-54
2022/12/01 05:59:15;;;;;;;;;;;;;;;;;;4945221;28;19932;-54
2022/12/01 06:01:41;;;;;;;;;;;;;;;;;;4943670;28;19918;-54
2022/12/01 06:04:07;;;;;;;;;;;;;;;;;;4937257;28;19918;-53
2022/12/01 06:06:33;;;;;;;;;;;;;;;;;;4943139;28;19921;-54
2022/12/01 06:08:59;;;;;;;;;;;;;;;;;;4928367;28;20837;-53
2022/12/01 06:11:25;;;;;;;;;;;;;;;;;;4944597;28;20586;-54
2022/12/01 06:13:51;;;;;;;;;;;;;;;;;;4939550;28;20271;-54
2022/12/01 06:16:16;;;;;;;;;;;;;;;;;;4929256;28;19926;-53
2022/12/01 06:18:42;;;;;;;;;;;;;;;;;;4950674;28;20575;-52
2022/12/01 06:21:08;;;;;;;;;;;;;;;;;;4955522;28;20011;-53
2022/12/01 06:23:34;;;;;;;;;;;;;;;;;;4963762;28;19924;-53
2022/12/01 06:26:00;;;;;;;;;;;;;;;;;;4992767;28;19929;-51
2022/12/01 06:28:26;;;;;;;;;;;;;;;;;;5004143;28;19964;-52
2022/12/01 06:30:52;;;;;;;;;;;;;;;;;;5008435;28;20433;-53
2022/12/01 06:33:18;;;;;;;;;;;;;;;;;;5004711;28;20015;-52
2022/12/01 06:35:43;;;;;;;;;;;;;;;;;;4997814;28;19921;-53
2022/12/01 06:38:09;;;;;;;;;;;;;;;;;;4998895;28;19929;-53
2022/12/01 06:40:35;;;;;;;;;;;;;;;;;;4991068;28;20444;-52
2022/12/01 06:43:01;;;;;;;;;;;;;;;;;;5005388;28;19929;-53
2022/12/01 06:45:27;;;;;;;;;;;;;;;;;;5004701;28;19939;-52
2022/12/01 06:47:53;;;;;;;;;;;;;;;;;;4984712;28;19947;-52
2022/12/01 06:50:19;;;;;;;;;;;;;;;;;;5000192;28;19921;-52
2022/12/01 06:52:45;;;;;;;;;;;;;;;;;;4999109;28;19917;-52
2022/12/01 06:55:11;;;;;;;;;;;;;;;;;;5023381;28;19926;-53
2022/12/01 06:57:37;;;;;;;;;;;;;;;;;;5007103;28;20077;-52
2022/12/01 07:00:03;;;;;;;;;;;;;;;;;;4998803;28;19928;-52
2022/12/01 07:02:29;;;;;;;;;;;;;;;;;;5006361;28;19925;-53
2022/12/01 07:04:54;;;;;;;;;;;;;;;;;;5008388;28;20561;-51
2022/12/01 07:07:20;;;;;;;;;;;;;;;;;;5003917;28;19925;-52
2022/12/01 07:09:46;;;;;;;;;;;;;;;;;;5005387;28;20448;-52
2022/12/01 07:12:12;;;;;;;;;;;;;;;;;;4987000;28;19922;-52
2022/12/01 07:14:38;;;;;;;;;;;;;;;;;;4999818;28;19932;-52
2022/12/01 07:17:04;;;;;;;;;;;;;;;;;;5003799;28;19987;-52
2022/12/01 07:19:30;;;;;;;;;;;;;;;;;;5006788;28;20323;-52
2022/12/01 07:21:56;;;;;;;;;;;;;;;;;;5013312;28;19931;-53
2022/12/01 07:24:22;;;;;;;;;;;;;;;;;;4988731;28;19930;-52
2022/12/01 07:26:48;;;;;;;;;;;;;;;;;;4995898;28;19949;-53
2022/12/01 07:29:14;;;;;;;;;;;;;;;;;;5003652;28;19929;-52
2022/12/01 07:31:40;;;;;;;;;;;;;;;;;;4999289;28;19928;-53
2022/12/01 07:34:06;;;;;;;;;;;;;;;;;;5008254;28;19925;-51
2022/12/01 07:36:31;;;;;;;;;;;;;;;;;;5011668;28;19977;-54
2022/12/01 07:38:57;;;;;;;;;;;;;;;;;;5019485;28;20156;-52
2022/12/01 07:41:23;;;;;;;;;;;;;;;;;;5003170;28;19921;-53
2022/12/01 07:43:49;;;;;;;;;;;;;;;;;;5006631;28;20408;-52
2022/12/01 07:46:15;;;;;;;;;;;;;;;;;;5011650;28;19947;-52
2022/12/01 07:48:41;;;;;;;;;;;;;;;;;;5013736;28;19925;-52
2022/12/01 07:51:07;;;;;;;;;;;;;;;;;;5017158;28;19968;-54
2022/12/01 07:53:33;;;;;;;;;;;;;;;;;;5018060;28;20372;-52
2022/12/01 07:55:58;;;;;;;;;;;;;;;;;;5000191;28;19925;-52
2022/12/01 07:58:25;;;;;;;;;;;;;;;;;;5015002;28;19932;-51
2022/12/01 08:00:51;;;;;;;;;;;;;;;;;;5018846;28;19925;-53
2022/12/01 08:03:17;;;;;;;;;;;;;;;;;;5005992;28;19925;-52
2022/12/01 08:05:42;;;;;;;;;;;;;;;;;;5011470;28;19927;-51
2022/12/01 08:08:08;;;;;;;;;;;;;;;;;;5008307;28;19921;-53
2022/12/01 08:10:34;;;;;;;;;;;;;;;;;;5009862;28;19933;-52
2022/12/01 08:13:00;;;;;;;;;;;;;;;;;;5017670;28;19933;-53
2022/12/01 08:15:26;;;;;;;;;;;;;;;;;;5005472;28;20601;-53
2022/12/01 08:17:52;;;;;;;;;;;;;;;;;;5015527;28;20014;-52
2022/12/01 08:20:18;;;;;;;;;;;;;;;;;;5018355;28;20007;-53
2022/12/01 08:22:43;;;;;;;;;;;;;;;;;;5005484;28;19924;-51
2022/12/01 08:25:09;;;;;;;;;;;;;;;;;;5013886;28;20371;-53
2022/12/01 08:27:35;;;;;;;;;;;;;;;;;;5013357;28;19929;-51
2022/12/01 08:30:01;;;;;;;;;;;;;;;;;;5013306;28;19925;-52
2022/12/01 08:32:28;;;;;;;;;;;;;;;;;;5008114;28;19920;-52
2022/12/01 08:34:54;;;;;;;;;;;;;;;;;;5010934;28;19974;-52
2022/12/01 08:37:20;;;;;;;;;;;;;;;;;;5008898;28;19929;-52
2022/12/01 08:39:46;;;;;;;;;;;;;;;;;;5011701;28;19925;-52
2022/12/01 08:42:12;;;;;;;;;;;;;;;;;;5007718;28;20389;-53
2022/12/01 08:44:37;;;;;;;;;;;;;;;;;;5010707;28;19921;-52
2022/12/01 08:47:03;;;;;;;;;;;;;;;;;;5001288;28;20468;-51
2022/12/01 08:49:29;;;;;;;;;;;;;;;;;;5009596;28;19926;-53
2022/12/01 08:51:55;;;;;;;;;;;;;;;;;;5009891;28;19924;-52
2022/12/01 08:54:21;;;;;;;;;;;;;;;;;;5010689;28;19929;-53
2022/12/01 08:56:47;;;;;;;;;;;;;;;;;;5003030;28;19931;-53
2022/12/01 08:59:13;;;;;;;;;;;;;;;;;;5010580;28;20040;-52
2022/12/01 09:01:50;;;;;;;;;;;;;;;;;;5002471;28;19921;-52
2022/12/01 09:04:16;;;;;;;;;;;;;;;;;;5016441;28;19980;-52
2022/12/01 09:06:42;;;;;;;;;;;;;;;;;;5017410;28;19932;-53
2022/12/01 09:09:08;;;;;;;;;;;;;;;;;;5001504;28;19928;-53
2022/12/01 09:11:34;;;;;;;;;;;;;;;;;;5013951;28;19924;-53
2022/12/01 09:14:00;;;;;;;;;;;;;;;;;;5013356;28;20473;-53
2022/12/01 09:16:25;;;;;;;;;;;;;;;;;;5002610;28;20388;-53
2022/12/01 09:18:51;;;;;;;;;;;;;;;;;;5012521;28;19936;-52
2022/12/01 09:21:17;;;;;;;;;;;;;;;;;;5010465;28;19913;-53
2022/12/01 09:23:43;;;;;;;;;;;;;;;;;;5008227;28;19932;-53
2022/12/01 09:26:09;;;;;;;;;;;;;;;;;;5005881;28;20427;-53
2022/12/01 09:28:35;;;;;;;;;;;;;;;;;;4996191;28;19925;-53
2022/12/01 09:31:01;;;;;;;;;;;;;;;;;;5010328;28;19932;-52
2022/12/01 09:33:27;;;;;;;;;;;;;;;;;;5003996;28;20385;-52
2022/12/01 09:35:52;;;;;;;;;;;;;;;;;;5017266;28;20451;-51
2022/12/01 09:38:18;;;;;;;;;;;;;;;;;;5009167;28;19930;-53
2022/12/01 09:40:44;;;;;;;;;;;;;;;;;;5009630;28;20015;-52
2022/12/01 09:43:10;;;;;;;;;;;;;;;;;;4999115;28;21436;-52
2022/12/01 09:45:36;;;;;;;;;;;;;;;;;;5002658;28;20518;-53
2022/12/01 09:48:02;;;;;;;;;;;;;;;;;;5007536;28;19916;-53
2022/12/01 09:50:29;;;;;;;;;;;;;;;;;;5000957;28;19948;-52
2022/12/01 09:52:55;;;;;;;;;;;;;;;;;;5016831;28;19929;-54
2022/12/01 09:55:22;;;;;;;;;;;;;;;;;;5011217;28;20081;-51
2022/12/01 09:57:48;;;;;;;;;;;;;;;;;;5010424;28;19935;-52
2022/12/01 10:00:13;;;;;;;;;;;;;;;;;;5001295;28;19917;-53
2022/12/01 10:02:40;;;;;;;;;;;;;;;;;;5006589;28;19925;-52
2022/12/01 10:05:05;;;;;;;;;;;;;;;;;;5010649;28;20483;-53
2022/12/01 10:07:31;;;;;;;;;;;;;;;;;;5005918;28;19927;-52
2022/12/01 10:09:57;;;;;;;;;;;;;;;;;;5010207;28;20397;-53
2022/12/01 10:12:26;;;;;;;;;;;;;;;;;;5015833;28;20051;-53
2022/12/01 10:14:52;;;;;;;;;;;;;;;;;;5000014;28;19968;-51
2022/12/01 10:17:18;;;;;;;;;;;;;;;;;;5001773;28;19971;-53
2022/12/01 10:19:44;;;;;;;;;;;;;;;;;;5008076;28;19917;-53
2022/12/01 10:22:09;;;;;;;;;;;;;;;;;;5011996;28;19932;-52
2022/12/01 10:24:35;;;;;;;;;;;;;;;;;;5006372;28;19925;-52
2022/12/01 10:27:01;;;;;;;;;;;;;;;;;;5012708;28;19925;-52
2022/12/01 10:29:27;;;;;;;;;;;;;;;;;;4997271;28;19936;-53
2022/12/01 10:31:53;;;;;;;;;;;;;;;;;;5008405;28;19921;-53
2022/12/01 10:34:19;;;;;;;;;;;;;;;;;;5011957;28;20342;-52
2022/12/01 10:36:45;;;;;;;;;;;;;;;;;;5011529;28;19921;-52
2022/12/01 10:39:11;;;;;;;;;;;;;;;;;;4989033;28;19933;-53
2022/12/01 10:41:37;;;;;;;;;;;;;;;;;;5015891;28;19979;-52
2022/12/01 10:44:04;;;;;;;;;;;;;;;;;;5004681;28;20192;-53
2022/12/01 10:46:30;;;;;;;;;;;;;;;;;;5001036;28;19956;-53
2022/12/01 10:48:56;;;;;;;;;;;;;;;;;;4988664;28;20040;-53
2022/12/01 10:51:21;;;;;;;;;;;;;;;;;;4987880;28;20327;-53
2022/12/01 10:53:47;;;;;;;;;;;;;;;;;;4999457;28;19979;-53
2022/12/01 10:56:13;;;;;;;;;;;;;;;;;;4995994;28;20330;-53
2022/12/01 10:58:39;;;;;;;;;;;;;;;;;;4996443;28;19925;-52
2022/12/01 11:01:05;;;;;;;;;;;;;;;;;;5015790;28;20350;-52
2022/12/01 11:03:31;;;;;;;;;;;;;;;;;;5006951;28;19931;-52
2022/12/01 11:05:57;;;;;;;;;;;;;;;;;;4989763;28;19922;-53
2022/12/01 11:08:23;;;;;;;;;;;;;;;;;;5012083;28;19925;-53
2022/12/01 11:10:49;;;;;;;;;;;;;;;;;;5001645;28;26542;-53
2022/12/01 11:13:14;;;;;;;;;;;;;;;;;;4996312;28;19940;-54
2022/12/01 11:15:40;;;;;;;;;;;;;;;;;;5002901;28;19925;-51
2022/12/01 11:18:07;;;;;;;;;;;;;;;;;;5009531;28;20423;-52
2022/12/01 11:20:33;;;;;;;;;;;;;;;;;;5014026;28;19917;-53
2022/12/01 11:22:59;;;;;;;;;;;;;;;;;;5020379;28;19925;-53
2022/12/01 11:25:25;;;;;;;;;;;;;;;;;;5012740;28;19929;-53
2022/12/01 11:27:51;;;;;;;;;;;;;;;;;;5006434;28;19917;-52
2022/12/01 11:30:17;;;;;;;;;;;;;;;;;;5004517;28;20279;-52
2022/12/01 11:32:43;;;;;;;;;;;;;;;;;;5015470;28;19927;-53
2022/12/01 11:35:09;;;;;;;;;;;;;;;;;;5014027;28;20286;-53
2022/12/01 11:37:35;;;;;;;;;;;;;;;;;;5010759;28;19928;-52
2022/12/01 11:40:00;;;;;;;;;;;;;;;;;;5010767;28;19925;-52
2022/12/01 11:42:26;;;;;;;;;;;;;;;;;;5009940;28;19925;-54
2022/12/01 11:44:52;;;;;;;;;;;;;;;;;;5017423;28;20315;-51
2022/12/01 11:47:18;;;;;;;;;;;;;;;;;;5010064;28;19927;-53
2022/12/01 11:49:44;;;;;;;;;;;;;;;;;;5009047;28;20027;-53
2022/12/01 11:52:10;;;;;;;;;;;;;;;;;;5010927;28;20330;-53
2022/12/01 11:54:36;;;;;;;;;;;;;;;;;;5001106;28;19931;-53
2022/12/01 11:57:02;;;;;;;;;;;;;;;;;;5010496;28;19933;-53
2022/12/01 11:59:27;;;;;;;;;;;;;;;;;;5008564;28;19931;-53
2022/12/01 12:01:53;;;;;;;;;;;;;;;;;;5017445;28;19978;-52
2022/12/01 12:04:19;;;;;;;;;;;;;;;;;;5021670;28;20382;-53
2022/12/01 12:06:45;;;;;;;;;;;;;;;;;;5012339;28;19956;-53
2022/12/01 12:09:11;;;;;;;;;;;;;;;;;;5013816;28;20474;-53
2022/12/01 12:11:37;;;;;;;;;;;;;;;;;;5016981;28;19921;-51
2022/12/01 12:14:03;;;;;;;;;;;;;;;;;;4995755;28;19928;-51
2022/12/01 12:16:28;;;;;;;;;;;;;;;;;;5001376;28;20366;-53
2022/12/01 12:18:55;;;;;;;;;;;;;;;;;;4993428;28;19933;-53
2022/12/01 12:21:20;;;;;;;;;;;;;;;;;;5000122;28;20319;-53
2022/12/01 12:23:46;;;;;;;;;;;;;;;;;;4997854;28;19925;-54
2022/12/01 12:26:12;;;;;;;;;;;;;;;;;;4989037;28;19925;-54
2022/12/01 12:28:38;;;;;;;;;;;;;;;;;;5002933;28;19944;-53
2022/12/01 12:31:04;;;;;;;;;;;;;;;;;;5020432;28;19925;-54
2022/12/01 12:33:30;;;;;;;;;;;;;;;;;;5005039;28;19932;-53
2022/12/01 12:35:55;;;;;;;;;;;;;;;;;;5010691;28;20374;-53
2022/12/01 12:38:21;;;;;;;;;;;;;;;;;;5002443;28;19933;-54
2022/12/01 12:40:47;;;;;;;;;;;;;;;;;;4991712;28;19925;-54
2022/12/01 12:43:13;;;;;;;;;;;;;;;;;;4996836;28;19925;-54
2022/12/01 12:45:39;;;;;;;;;;;;;;;;;;4996952;28;20393;-54
2022/12/01 12:48:05;;;;;;;;;;;;;;;;;;5007162;28;19921;-54
2022/12/01 12:50:31;;;;;;;;;;;;;;;;;;5003845;28;19925;-53
2022/12/01 12:52:57;;;;;;;;;;;;;;;;;;5003709;28;20460;-54
2022/12/01 12:55:23;;;;;;;;;;;;;;;;;;5008009;28;19925;-54
2022/12/01 12:57:48;;;;;;;;;;;;;;;;;;4996498;28;22184;-53
2022/12/01 13:00:14;;;;;;;;;;;;;;;;;;5001146;28;19932;-55
2022/12/01 13:02:40;;;;;;;;;;;;;;;;;;4977184;28;20055;-55
2022/12/01 13:05:06;;;;;;;;;;;;;;;;;;4997145;28;19933;-53
2022/12/01 13:07:32;;;;;;;;;;;;;;;;;;5009161;28;20004;-53
2022/12/01 13:09:58;;;;;;;;;;;;;;;;;;4993031;28;20018;-53
2022/12/01 13:12:24;;;;;;;;;;;;;;;;;;5010812;28;19964;-53
2022/12/01 13:14:50;;;;;;;;;;;;;;;;;;5007423;28;19971;-54
2022/12/01 13:17:16;;;;;;;;;;;;;;;;;;4980239;28;20375;-54
2022/12/01 13:19:42;;;;;;;;;;;;;;;;;;5005947;28;19932;-53
2022/12/01 13:22:08;;;;;;;;;;;;;;;;;;4988824;28;20366;-53
2022/12/01 13:24:33;;;;;;;;;;;;;;;;;;5007400;28;19929;-55
2022/12/01 13:26:59;;;;;;;;;;;;;;;;;;5003845;28;20247;-53
2022/12/01 13:29:25;;;;;;;;;;;;;;;;;;4996975;28;20329;-53
2022/12/01 13:31:51;;;;;;;;;;;;;;;;;;4996145;28;20639;-53
2022/12/01 13:34:17;;;;;;;;;;;;;;;;;;4997092;28;20314;-54
2022/12/01 13:36:43;;;;;;;;;;;;;;;;;;5004068;28;19935;-54
2022/12/01 13:39:09;;;;;;;;;;;;;;;;;;5002702;28;19920;-53
2022/12/01 13:41:37;;;;;;;;;;;;;;;;;;4997623;28;19929;-54
2022/12/01 13:44:03;;;;;;;;;;;;;;;;;;5001266;28;19921;-53
2022/12/01 13:46:29;;;;;;;;;;;;;;;;;;5002266;28;20735;-54
2022/12/01 13:48:55;;;;;;;;;;;;;;;;;;5000472;28;20084;-53
2022/12/01 13:51:21;;;;;;;;;;;;;;;;;;5008367;28;19921;-53
2022/12/01 13:53:47;;;;;;;;;;;;;;;;;;4992462;28;20979;-54
2022/12/01 13:56:13;;;;;;;;;;;;;;;;;;4994246;28;20022;-53
2022/12/01 13:58:39;;;;;;;;;;;;;;;;;;5006453;28;19965;-52
2022/12/01 14:01:05;;;;;;;;;;;;;;;;;;4998202;28;19931;-52
2022/12/01 14:03:30;;;;;;;;;;;;;;;;;;4992713;28;19925;-53
2022/12/01 14:05:56;;;;;;;;;;;;;;;;;;4993113;28;19932;-53
2022/12/01 14:08:22;;;;;;;;;;;;;;;;;;5015808;28;20394;-52
2022/12/01 14:10:48;;;;;;;;;;;;;;;;;;5008678;28;19925;-51
2022/12/01 14:13:14;;;;;;;;;;;;;;;;;;4983008;28;21029;-51
2022/12/01 14:15:41;;;;;;;;;;;;;;;;;;4988893;28;19925;-52
2022/12/01 14:18:07;;;;;;;;;;;;;;;;;;4982919;28;19922;-51
2022/12/01 14:20:32;;;;;;;;;;;;;;;;;;4998489;28;20350;-53
2022/12/01 14:22:58;;;;;;;;;;;;;;;;;;4984397;28;19937;-53
2022/12/01 14:25:25;;;;;;;;;;;;;;;;;;4991442;28;20360;-52
2022/12/01 14:27:51;;;;;;;;;;;;;;;;;;4993319;28;19913;-52
2022/12/01 14:30:17;;;;;;;;;;;;;;;;;;4991192;28;20002;-52
2022/12/01 14:32:43;;;;;;;;;;;;;;;;;;5004944;28;19913;-53
2022/12/01 14:35:09;;;;;;;;;;;;;;;;;;5000703;28;19976;-51
2022/12/01 14:37:35;;;;;;;;;;;;;;;;;;5002584;28;19944;-52
2022/12/01 14:40:00;;;;;;;;;;;;;;;;;;5004361;28;19927;-52
2022/12/01 14:45:12;;;;;;;;;;;;;;;;;;4996846;28;20070;-52
2022/12/01 14:47:38;;;;;;;;;;;;;;;;;;5007669;28;19925;-52
2022/12/01 14:50:04;;;;;;;;;;;;;;;;;;5011738;28;19925;-52
2022/12/01 14:52:30;;;;;;;;;;;;;;;;;;5003142;28;19925;-53
2022/12/01 14:54:56;;;;;;;;;;;;;;;;;;5004894;28;19926;-52
2022/12/01 14:57:22;;;;;;;;;;;;;;;;;;4997366;28;20406;-51
2022/12/01 14:59:48;;;;;;;;;;;;;;;;;;5008422;28;19925;-54
2022/12/01 15:02:14;;;;;;;;;;;;;;;;;;4983535;28;19970;-53
2022/12/01 15:04:40;;;;;;;;;;;;;;;;;;4991148;28;19933;-53
2022/12/01 15:07:05;;;;;;;;;;;;;;;;;;4998346;28;19921;-54
2022/12/01 15:09:31;;;;;;;;;;;;;;;;;;4974749;28;20396;-53
2022/12/01 15:11:57;;;;;;;;;;;;;;;;;;4985784;28;19928;-53
2022/12/01 15:14:23;;;;;;;;;;;;;;;;;;4952143;28;20795;-53
2022/12/01 15:16:49;;;;;;;;;;;;;;;;;;5001982;28;19921;-53
2022/12/01 15:19:15;;;;;;;;;;;;;;;;;;4986782;28;20411;-53
2022/12/01 15:21:41;;;;;;;;;;;;;;;;;;4989260;28;19932;-52
2022/12/01 15:24:07;;;;;;;;;;;;;;;;;;4998215;28;19916;-51
2022/12/01 15:26:33;;;;;;;;;;;;;;;;;;4974672;28;21392;-53
2022/12/01 15:28:59;;;;;;;;;;;;;;;;;;4959273;28;19925;-52
2022/12/01 15:31:24;;;;;;;;;;;;;;;;;;4991877;28;19960;-52
2022/12/01 15:33:50;;;;;;;;;;;;;;;;;;4989386;28;20347;-52
2022/12/01 15:36:16;;;;;;;;;;;;;;;;;;4991261;28;19948;-53
2022/12/01 15:38:42;;;;;;;;;;;;;;;;;;5002684;28;20008;-52
2022/12/01 15:41:08;;;;;;;;;;;;;;;;;;4986910;28;20940;-53
2022/12/01 15:43:36;;;;;;;;;;;;;;;;;;4988451;28;19925;-51
2022/12/01 15:46:03;;;;;;;;;;;;;;;;;;4971383;28;19922;-51
2022/12/01 15:48:29;;;;;;;;;;;;;;;;;;4982547;28;19918;-53
2022/12/01 15:50:55;;;;;;;;;;;;;;;;;;4996215;28;19978;-53
2022/12/01 15:53:21;;;;;;;;;;;;;;;;;;4990591;28;20290;-52
2022/12/01 15:55:47;;;;;;;;;;;;;;;;;;4991125;28;20005;-51
2022/12/01 15:58:12;;;;;;;;;;;;;;;;;;4964153;28;20450;-52
2022/12/01 16:00:38;;;;;;;;;;;;;;;;;;4967416;28;19917;-53
2022/12/01 16:03:04;;;;;;;;;;;;;;;;;;4988308;28;20440;-52
2022/12/01 16:05:31;;;;;;;;;;;;;;;;;;4993055;28;19968;-52
2022/12/01 16:07:57;;;;;;;;;;;;;;;;;;5000896;28;20210;-52
2022/12/01 16:10:23;;;;;;;;;;;;;;;;;;4996972;28;19930;-52
2022/12/01 16:12:49;;;;;;;;;;;;;;;;;;4994242;28;19971;-53
2022/12/01 16:15:17;;;;;;;;;;;;;;;;;;4976029;28;20320;-53
2022/12/01 16:17:43;;;;;;;;;;;;;;;;;;4992041;28;20069;-52
2022/12/01 16:20:08;;;;;;;;;;;;;;;;;;4979869;28;19917;-52
2022/12/01 16:22:34;;;;;;;;;;;;;;;;;;4976174;28;20401;-52
2022/12/01 16:25:00;;;;;;;;;;;;;;;;;;4992188;28;19921;-51
2022/12/01 16:27:26;;;;;;;;;;;;;;;;;;4980703;28;19941;-53
2022/12/01 16:29:52;;;;;;;;;;;;;;;;;;4991479;28;20357;-52
2022/12/01 16:32:18;;;;;;;;;;;;;;;;;;4989751;28;20534;-53
2022/12/01 16:34:46;;;;;;;;;;;;;;;;;;4987688;28;19924;-51
2022/12/01 16:37:12;;;;;;;;;;;;;;;;;;4982274;28;20998;-53
2022/12/01 16:39:37;;;;;;;;;;;;;;;;;;5001136;28;20849;-53
2022/12/01 16:42:03;;;;;;;;;;;;;;;;;;4999794;28;20016;-52
2022/12/01 16:44:29;;;;;;;;;;;;;;;;;;4981160;28;20822;-52